メインページ
METAR-TAF:

METAR-TAF

空港 :

モスクワ-シェレメーチエヴォ, ロシア

シェレメーチエヴォ国際空港

緯度: 55-59N, 経度: 037-30E, 海抜: 190m

現時点の気象観測

当レポートは40分前の14:00(UTC)に作成
の風 10kt
気温 27°C
湿度 42%
気圧 1006 hPa
視程10km以上
1,500メートル以下は雲なし、積乱雲なし

METAR: UUEE 261400Z 17005MPS CAVOK 27/13 Q1006 R24R/CLRD62 R24L/CLRD62 NOSIG

時間: 17:40 (14:40 UTC)

予報

当レポートは43分前の13:57(UTC)に作成
予報は26日の 15時(UTC)から 27日の 15時(UTC)まで有効
の風 12kt
視程10km以上
高度3000ftの雲は散在している
26日の 15時(UTC)から 26日の 17時(UTC)まで一時的に
の風 19kt
確率 40% :
27日の 03時(UTC)から 27日の 15時(UTC)まで一時的に
変向風 31kt
視程: 1500m
高度600ftの雲は散在している
高度2000ftの千切れ雲あり, 積乱雲.
激しい雷雨, 雨, スコール

TAF: UUEE 261357Z 2615/2715 17006MPS 9999 SCT030 TX27/2712Z TN17/2702Z TEMPO 2615/2617 17010MPS PROB40 TEMPO 2703/2715 VRB16MPS 1500 TSRA SQ SCT006 BKN020CB

4,000以上の空港の気象観測と天気予報(METAR報とTAF報)

利用可能な観測所は地図上に黄色い丸と赤い丸で示す。

丸の上にカーソルを重ねると観測所名を参照できる。

次にクリックすると気象観測と天気予報を参照できる。

マップの切り替え:黒色「×」印の緑ボタンをクリックして拡大、「-」印の緑ボタンをクリックして縮小、緑色の三角印をクリックして隣りの地図に切り替え


METAR-TAF: